Terminal Aerodrome Forecast
Issued by NWS

Home | Current Version | Previous Version | Text Only | Print | Product List | Glossary On
Versions: 1 2 3 4 5 6 7 8 9 10 11 12 13 14 15 16 17 18 19 20 21
775
FTUS43 KMQT 251902 AAA
TAFSAW
TAF AMD
KSAW 251902Z 2519/2618 06006KT P6SM BKN009
     FM252000 06006KT P6SM SCT110
     FM260300 12007KT 5SM BR OVC070 WS010/13035KT
     FM260500 13009KT 4SM BR OVC030 WS010/13035KT
     FM260700 15011KT 3SM -SHRA BR OVC008
     FM260900 17010KT 1 1/2SM BR OVC003
     FM261400 23007KT 1 1/2SM BR BKN003
     FM261600 23007KT 3SM BR BKN015=

USA.gov is the U.S. government's official web portal to all federal, state and local government web resources and services.